Time;durP1;ratioP1;P1;durP2;ratioP2;P2;SDS_P1;SDS_P2;PMS_P1;PMS_P2;Temp;Humidity;BMP_temperature;BMP_pressure;BME280_temperature;BME280_humidity;BME280_pressure;Samples;Min_cycle;Max_cycle;Signal;HPM_P1;HPM_P2
2021/06/01 00:01:17;;;;;;;7.27;6.67;;;10.70;99.90;;;;;;4981025;28;20271;-77
2021/06/01 00:03:43;;;;;;;7.60;7.00;;;10.70;99.90;;;;;;4993385;28;20224;-78
2021/06/01 00:06:11;;;;;;;7.63;6.93;;;10.70;99.90;;;;;;4985038;28;20200;-77
2021/06/01 00:08:38;;;;;;;7.50;6.80;;;10.70;99.90;;;;;;4976252;28;20221;-77
2021/06/01 00:11:05;;;;;;;7.30;6.70;;;10.60;99.90;;;;;;4993252;28;20729;-77
2021/06/01 00:13:32;;;;;;;7.40;6.70;;;10.70;99.90;;;;;;4980855;28;20694;-78
2021/06/01 00:15:58;;;;;;;7.20;6.63;;;10.60;99.90;;;;;;4977849;28;20220;-77
2021/06/01 00:18:25;;;;;;;6.80;6.30;;;10.60;99.90;;;;;;4999024;28;20208;-77
2021/06/01 00:20:51;;;;;;;7.57;6.93;;;10.60;99.90;;;;;;4980895;28;20221;-77
2021/06/01 00:23:19;;;;;;;6.83;6.23;;;10.50;99.90;;;;;;4983166;28;20208;-77
2021/06/01 00:25:45;;;;;;;6.97;6.37;;;10.50;99.90;;;;;;4976430;28;20201;-77
2021/06/01 00:28:12;;;;;;;7.60;7.00;;;10.40;99.90;;;;;;5004399;28;20219;-77
2021/06/01 00:30:40;;;;;;;7.20;6.60;;;10.40;99.90;;;;;;4974387;28;20220;-77
2021/06/01 00:33:06;;;;;;;7.00;6.40;;;10.30;99.90;;;;;;4995098;28;20235;-77
2021/06/01 00:35:34;;;;;;;7.07;6.53;;;10.30;99.90;;;;;;4971743;28;21050;-77
2021/06/01 00:38:00;;;;;;;6.83;6.23;;;10.20;99.90;;;;;;4992304;28;20198;-77
2021/06/01 00:40:28;;;;;;;7.97;7.37;;;10.20;99.90;;;;;;4996375;28;20312;-77
2021/06/01 00:42:55;;;;;;;7.43;6.83;;;10.20;99.90;;;;;;4976870;28;20204;-77
2021/06/01 00:45:23;;;;;;;7.70;7.10;;;10.10;99.90;;;;;;4991360;28;20197;-77
2021/06/01 00:47:50;;;;;;;7.20;6.70;;;10.10;99.90;;;;;;4974670;28;20284;-77
2021/06/01 00:50:20;;;;;;;7.60;7.00;;;10.00;99.90;;;;;;4992178;28;20224;-77
2021/06/01 00:52:46;;;;;;;7.50;7.00;;;9.90;99.90;;;;;;4987513;28;20206;-77
2021/06/01 00:55:13;;;;;;;7.57;6.87;;;9.80;99.90;;;;;;4979036;28;20201;-77
2021/06/01 00:57:41;;;;;;;6.90;6.40;;;9.80;99.90;;;;;;4974906;28;20208;-77
2021/06/01 01:00:14;;;;;;;7.80;7.20;;;9.80;99.90;;;;;;4992287;28;20237;-77
2021/06/01 01:02:41;;;;;;;7.67;7.17;;;9.80;99.90;;;;;;4990887;28;20205;-77
2021/06/01 01:05:10;;;;;;;8.33;7.57;;;9.80;99.90;;;;;;4996182;28;20206;-77
2021/06/01 01:07:44;;;;;;;7.40;6.80;;;9.70;99.90;;;;;;4973323;28;20279;-78
2021/06/01 01:10:12;;;;;;;7.70;7.10;;;9.60;99.90;;;;;;4972029;28;20252;-78
2021/06/01 01:12:47;;;;;;;8.00;7.40;;;9.60;99.90;;;;;;4988949;28;20200;-78
2021/06/01 01:15:14;;;;;;;7.80;7.20;;;9.60;99.90;;;;;;4970880;28;20205;-78
2021/06/01 01:17:47;;;;;;;7.70;7.10;;;9.50;99.90;;;;;;4983344;28;20194;-78
2021/06/01 01:20:23;;;;;;;7.40;6.90;;;9.40;99.90;;;;;;4974541;28;20225;-78
2021/06/01 01:22:53;;;;;;;7.90;7.30;;;9.40;99.90;;;;;;4989837;28;20588;-78
2021/06/01 01:25:24;;;;;;;7.50;6.90;;;9.30;99.90;;;;;;4989532;28;20201;-78
2021/06/01 01:28:04;;;;;;;7.37;6.80;;;9.40;99.90;;;;;;4974390;28;20213;-77
2021/06/01 01:30:37;;;;;;;7.90;7.10;;;9.30;99.90;;;;;;4978389;28;20228;-76
2021/06/01 01:33:18;;;;;;;8.03;7.37;;;9.30;99.90;;;;;;4980433;28;20200;-77
2021/06/01 01:35:47;;;;;;;7.93;7.27;;;9.20;99.90;;;;;;4997291;28;20204;-77
2021/06/01 01:38:15;;;;;;;7.90;7.30;;;9.20;99.90;;;;;;4977155;28;20198;-77
2021/06/01 01:40:44;;;;;;;7.73;7.10;;;9.10;99.90;;;;;;4993060;28;20216;-78
2021/06/01 01:43:15;;;;;;;7.70;7.00;;;9.10;99.90;;;;;;4990642;28;20209;-77
2021/06/01 01:45:46;;;;;;;8.40;7.73;;;9.10;99.90;;;;;;5016780;28;20205;-77
2021/06/01 01:51:12;;;;;;;8.17;7.57;;;9.00;99.90;;;;;;4975832;28;20229;-77
2021/06/01 01:53:49;;;;;;;8.73;7.93;;;9.00;99.90;;;;;;4991182;28;20219;-77
2021/06/01 01:56:18;;;;;;;8.00;7.40;;;9.00;99.90;;;;;;4983997;28;20226;-77
2021/06/01 01:58:45;;;;;;;7.80;7.20;;;8.90;99.90;;;;;;4977148;28;20661;-78
2021/06/01 02:01:12;;;;;;;8.00;7.40;;;8.90;99.90;;;;;;4984875;28;20282;-78
2021/06/01 02:03:41;;;;;;;8.30;7.60;;;8.90;99.90;;;;;;4974602;28;20204;-78
2021/06/01 02:06:07;;;;;;;7.87;7.27;;;8.80;99.90;;;;;;4982946;28;20673;-78
2021/06/01 02:08:37;;;;;;;7.80;7.20;;;8.80;99.90;;;;;;4979376;28;20236;-77
2021/06/01 02:11:03;;;;;;;8.27;7.67;;;8.70;99.90;;;;;;4977999;28;20224;-77
2021/06/01 02:13:31;;;;;;;7.80;7.20;;;8.70;99.90;;;;;;4979872;28;20274;-78
2021/06/01 02:15:57;;;;;;;8.03;7.43;;;8.70;99.90;;;;;;4978991;28;20332;-77
2021/06/01 02:18:23;;;;;;;9.20;8.50;;;8.60;99.90;;;;;;4987503;28;20204;-77
2021/06/01 02:20:55;;;;;;;8.03;7.43;;;8.60;99.90;;;;;;4994374;28;20215;-79
2021/06/01 02:23:48;;;;;;;8.50;7.80;;;8.50;99.90;;;;;;4981446;28;20627;-77
2021/06/01 02:26:22;;;;;;;8.23;7.63;;;8.50;99.90;;;;;;4974810;28;20221;-77
2021/06/01 02:28:54;;;;;;;8.40;7.60;;;8.50;99.90;;;;;;4977611;28;20770;-77
2021/06/01 02:31:29;;;;;;;8.33;7.63;;;8.50;99.90;;;;;;4977811;28;20251;-78
2021/06/01 02:33:57;;;;;;;8.40;7.70;;;8.50;99.90;;;;;;4979027;28;20261;-77
2021/06/01 02:36:26;;;;;;;8.20;7.60;;;8.40;99.90;;;;;;4993357;28;20202;-77
2021/06/01 02:38:55;;;;;;;9.37;8.57;;;8.50;99.90;;;;;;4994809;28;20218;-77
2021/06/01 02:41:22;;;;;;;8.97;8.13;;;8.40;99.90;;;;;;4975526;28;20612;-78
2021/06/01 02:43:49;;;;;;;8.40;7.70;;;8.40;99.90;;;;;;4988884;28;20213;-79
2021/06/01 02:46:16;;;;;;;8.20;7.60;;;8.30;99.90;;;;;;4985287;28;20203;-79
2021/06/01 02:48:43;;;;;;;8.27;7.57;;;8.30;99.90;;;;;;4980082;28;20231;-79
2021/06/01 02:51:17;;;;;;;8.17;7.47;;;8.30;99.90;;;;;;4997653;28;20695;-79
2021/06/01 02:53:47;;;;;;;5.37;4.87;;;8.30;99.90;;;;;;4976582;28;20211;-78
2021/06/01 02:56:15;;;;;;;9.33;8.50;;;8.20;99.90;;;;;;4979961;28;20226;-75
2021/06/01 02:58:42;;;;;;;7.80;7.07;;;8.20;99.90;;;;;;4962566;28;20195;-77
2021/06/01 03:01:12;;;;;;;8.73;8.03;;;8.20;99.90;;;;;;4975324;28;20227;-76
2021/06/01 03:03:44;;;;;;;8.00;7.20;;;8.10;99.90;;;;;;4994101;28;20266;-75
2021/06/01 03:06:11;;;;;;;8.20;7.50;;;8.10;99.90;;;;;;4984581;28;20207;-75
2021/06/01 03:08:40;;;;;;;8.70;7.90;;;8.10;99.90;;;;;;4973162;28;20303;-76
2021/06/01 03:11:08;;;;;;;8.67;7.97;;;8.00;99.90;;;;;;4977898;28;20227;-76
2021/06/01 03:13:34;;;;;;;9.10;8.30;;;8.00;99.90;;;;;;4988787;28;20203;-75
2021/06/01 03:16:01;;;;;;;9.03;8.23;;;8.00;99.90;;;;;;4982785;28;20260;-75
2021/06/01 03:18:28;;;;;;;8.47;7.80;;;8.10;99.90;;;;;;4973658;28;20581;-74
2021/06/01 03:20:55;;;;;;;8.83;7.87;;;8.00;99.90;;;;;;4994946;28;20756;-76
2021/06/01 03:23:22;;;;;;;9.10;8.30;;;8.00;99.90;;;;;;4999559;28;20446;-76
2021/06/01 03:25:48;;;;;;;8.73;8.00;;;7.90;99.90;;;;;;4992292;28;20269;-76
2021/06/01 03:28:16;;;;;;;9.03;8.03;;;7.90;99.90;;;;;;4994502;28;20761;-76
2021/06/01 03:30:43;;;;;;;9.87;7.87;;;7.90;99.90;;;;;;5024747;22;20263;-78
2021/06/01 03:33:10;;;;;;;8.57;7.77;;;7.90;99.90;;;;;;5033132;28;20192;-77
2021/06/01 03:35:36;;;;;;;8.80;7.90;;;7.90;99.90;;;;;;5032354;28;20206;-77
2021/06/01 03:38:02;;;;;;;8.10;7.40;;;7.90;99.90;;;;;;5029637;28;20619;-77
2021/06/01 03:40:29;;;;;;;8.50;7.80;;;7.90;99.90;;;;;;5032926;28;20214;-76
2021/06/01 03:42:55;;;;;;;8.57;7.87;;;8.00;99.90;;;;;;5031696;28;20267;-81
2021/06/01 03:45:25;;;;;;;8.40;7.70;;;8.00;99.90;;;;;;5032395;28;20215;-79
2021/06/01 03:47:52;;;;;;;9.37;7.90;;;7.90;99.90;;;;;;5031687;28;20222;-78
2021/06/01 03:50:19;;;;;;;8.40;7.60;;;8.00;99.90;;;;;;5025976;28;20214;-78
2021/06/01 03:52:46;;;;;;;8.30;7.60;;;8.00;99.90;;;;;;5028875;28;20234;-78
2021/06/01 03:55:13;;;;;;;8.93;8.03;;;8.00;99.90;;;;;;5020193;28;20202;-78
2021/06/01 03:57:39;;;;;;;8.60;7.90;;;8.00;99.90;;;;;;5022581;28;20197;-78
2021/06/01 04:00:08;;;;;;;8.40;7.40;;;8.10;99.90;;;;;;5023581;28;20569;-79
2021/06/01 04:02:40;;;;;;;11.03;8.17;;;8.00;99.90;;;;;;5026064;28;20263;-78
2021/06/01 04:05:07;;;;;;;8.50;7.70;;;8.00;99.90;;;;;;5032284;28;20209;-78
2021/06/01 04:07:33;;;;;;;5.93;4.40;;;8.10;99.90;;;;;;5034396;28;20210;-78
2021/06/01 04:09:59;;;;;;;8.17;5.23;;;8.00;99.90;;;;;;5032513;28;20710;-78
2021/06/01 04:12:26;;;;;;;5.83;4.77;;;8.10;99.90;;;;;;5032952;28;20209;-78
2021/06/01 04:14:52;;;;;;;6.20;4.90;;;8.10;99.90;;;;;;5033032;28;20640;-77
2021/06/01 04:17:18;;;;;;;7.73;4.97;;;8.20;99.90;;;;;;5032646;28;20194;-79
2021/06/01 04:19:46;;;;;;;5.03;4.53;;;8.20;99.90;;;;;;5032792;28;20621;-77
2021/06/01 04:22:12;;;;;;;5.60;4.57;;;8.30;99.90;;;;;;5031149;28;20270;-78
2021/06/01 04:24:39;;;;;;;4.93;4.23;;;8.30;99.90;;;;;;5030011;28;20193;-78
2021/06/01 04:27:06;;;;;;;6.00;4.60;;;8.40;99.90;;;;;;5032691;28;20225;-78
2021/06/01 04:29:32;;;;;;;4.70;4.20;;;8.50;99.90;;;;;;5033026;28;20222;-77
2021/06/01 04:31:59;;;;;;;4.87;3.90;;;8.60;99.90;;;;;;5034090;28;20205;-80
2021/06/01 04:34:25;;;;;;;6.80;4.50;;;8.60;99.90;;;;;;5034121;28;20215;-79
2021/06/01 04:36:53;;;;;;;5.73;4.43;;;8.70;99.90;;;;;;5032277;28;20257;-79
2021/06/01 04:39:19;;;;;;;5.43;4.50;;;8.80;99.90;;;;;;5029729;28;20198;-78
2021/06/01 04:41:45;;;;;;;5.23;4.20;;;9.00;99.90;;;;;;5032474;28;20222;-81
2021/06/01 04:44:12;;;;;;;4.77;4.30;;;9.20;99.90;;;;;;5031340;28;20209;-80
2021/06/01 04:46:38;;;;;;;6.73;6.10;;;9.50;99.90;;;;;;5029370;28;20258;-76
2021/06/01 04:49:04;;;;;;;6.90;6.20;;;9.90;99.90;;;;;;5028929;28;20212;-75
2021/06/01 04:51:31;;;;;;;6.67;5.90;;;10.30;99.90;;;;;;5027346;28;20246;-76
2021/06/01 04:54:00;;;;;;;4.90;4.27;;;10.50;99.90;;;;;;5028597;28;20200;-77
2021/06/01 04:56:28;;;;;;;6.13;4.77;;;10.70;99.90;;;;;;5029670;28;20282;-75
2021/06/01 04:58:55;;;;;;;6.43;5.10;;;10.90;99.90;;;;;;5029894;28;20191;-76
2021/06/01 05:01:21;;;;;;;5.20;4.70;;;10.90;99.90;;;;;;5029940;28;20266;-77
2021/06/01 05:03:48;;;;;;;5.67;5.13;;;11.10;99.90;;;;;;5029839;28;20200;-76
2021/06/01 05:06:14;;;;;;;4.20;3.80;;;11.10;99.90;;;;;;5031921;28;20594;-76
2021/06/01 05:08:40;;;;;;;5.50;5.00;;;11.10;99.90;;;;;;5030721;28;20230;-76
2021/06/01 05:11:08;;;;;;;6.00;5.40;;;11.20;99.90;;;;;;5030372;28;20231;-75
2021/06/01 05:13:34;;;;;;;4.77;3.50;;;11.40;99.90;;;;;;5031922;28;20207;-76
2021/06/01 05:16:01;;;;;;;4.70;4.27;;;11.50;99.90;;;;;;5031834;28;20246;-76
2021/06/01 05:18:27;;;;;;;4.83;4.40;;;11.80;99.90;;;;;;5031786;28;20573;-76
2021/06/01 05:20:53;;;;;;;4.47;3.90;;;12.00;99.90;;;;;;5031664;28;20270;-76
2021/06/01 05:23:19;;;;;;;5.73;5.20;;;12.10;99.90;;;;;;5031621;28;20197;-76
2021/06/01 05:25:46;;;;;;;5.20;3.97;;;12.10;99.90;;;;;;5031602;28;20721;-76
2021/06/01 05:28:14;;;;;;;5.17;4.70;;;12.30;99.90;;;;;;5031691;28;20210;-75
2021/06/01 05:30:44;;;;;;;4.20;3.80;;;12.40;99.90;;;;;;5030075;28;20229;-76
2021/06/01 05:33:15;;;;;;;4.67;4.20;;;12.50;99.90;;;;;;5031551;28;20206;-76
2021/06/01 05:35:45;;;;;;;4.60;4.20;;;12.60;99.90;;;;;;5031744;28;20201;-77
2021/06/01 05:38:12;;;;;;;4.60;4.07;;;12.90;99.90;;;;;;5030456;28;20611;-76
2021/06/01 05:40:38;;;;;;;6.20;5.60;;;13.40;99.90;;;;;;5030101;28;20242;-76
2021/06/01 05:43:05;;;;;;;6.00;5.40;;;14.10;99.90;;;;;;5030081;28;20204;-76
2021/06/01 05:45:32;;;;;;;4.37;3.97;;;14.80;99.90;;;;;;5031514;28;20197;-77
2021/06/01 05:47:59;;;;;;;4.87;4.37;;;15.40;99.90;;;;;;5031474;28;20695;-77
2021/06/01 05:50:25;;;;;;;7.33;5.07;;;16.20;99.90;;;;;;5031318;28;20682;-78
2021/06/01 05:52:52;;;;;;;5.60;5.00;;;16.80;99.90;;;;;;5029922;28;20209;-76
2021/06/01 05:55:18;;;;;;;4.33;3.93;;;17.20;99.90;;;;;;5028398;28;20210;-77
2021/06/01 05:57:44;;;;;;;4.67;4.00;;;17.80;99.90;;;;;;5030084;28;20203;-77
2021/06/01 06:00:12;;;;;;;5.03;4.57;;;18.00;99.90;;;;;;5029847;28;20219;-76
2021/06/01 06:02:39;;;;;;;5.80;5.30;;;18.10;99.90;;;;;;5030921;28;20676;-77
2021/06/01 06:05:06;;;;;;;4.20;3.90;;;18.40;99.90;;;;;;5029910;28;20207;-77
2021/06/01 06:07:33;;;;;;;3.90;3.50;;;18.80;99.90;;;;;;5028858;28;20204;-77
2021/06/01 06:09:59;;;;;;;5.00;4.33;;;19.10;99.90;;;;;;5029706;28;20728;-76
2021/06/01 06:12:25;;;;;;;4.30;3.90;;;19.30;99.90;;;;;;5031417;28;20205;-77
2021/06/01 06:14:52;;;;;;;4.00;3.60;;;18.90;99.90;;;;;;5035306;28;20201;-77
2021/06/01 06:17:29;;;;;;;4.97;4.47;;;19.10;99.90;;;;;;5035942;28;20193;-77
2021/06/01 06:19:58;;;;;;;5.13;4.70;;;19.20;99.90;;;;;;5035889;28;20228;-77
2021/06/01 06:22:25;;;;;;;5.30;4.80;;;19.50;99.90;;;;;;5034708;28;20215;-77
2021/06/01 06:24:51;;;;;;;6.30;5.80;;;19.60;99.90;;;;;;5034892;28;20193;-77
2021/06/01 06:27:18;;;;;;;5.50;5.00;;;19.60;99.90;;;;;;5034606;28;20251;-77
2021/06/01 06:29:45;;;;;;;5.47;4.97;;;19.80;99.90;;;;;;5033307;28;20237;-77
2021/06/01 06:32:11;;;;;;;5.43;4.57;;;19.90;99.90;;;;;;5034574;28;20206;-77
2021/06/01 06:34:37;;;;;;;4.40;3.73;;;19.70;99.90;;;;;;5034709;28;20213;-77
2021/06/01 06:37:06;;;;;;;6.10;5.30;;;19.80;99.90;;;;;;5034565;28;20197;-77
2021/06/01 06:39:33;;;;;;;4.77;3.70;;;20.00;99.90;;;;;;5034362;28;20237;-77
2021/06/01 06:41:59;;;;;;;5.10;4.60;;;20.20;99.90;;;;;;5032991;28;20203;-77
2021/06/01 06:44:26;;;;;;;4.13;3.77;;;20.30;99.90;;;;;;5034207;28;20203;-78
2021/06/01 06:47:05;;;;;;;3.90;3.50;;;20.40;99.90;;;;;;5033095;28;20214;-77
2021/06/01 06:49:32;;;;;;;5.23;3.70;;;20.60;99.90;;;;;;5033084;28;20219;-77
2021/06/01 06:51:59;;;;;;;4.90;4.50;;;20.40;99.10;;;;;;5034064;28;20203;-77
2021/06/01 06:54:27;;;;;;;5.07;4.63;;;20.90;99.30;;;;;;5034073;28;20876;-78
2021/06/01 06:56:53;;;;;;;4.70;4.30;;;20.80;99.00;;;;;;5034547;28;20568;-77
2021/06/01 06:59:19;;;;;;;4.33;3.97;;;20.80;99.10;;;;;;5032437;28;20187;-77
2021/06/01 07:01:46;;;;;;;5.63;5.13;;;21.10;99.50;;;;;;5033571;28;20900;-77
2021/06/01 07:04:12;;;;;;;5.60;5.00;;;21.00;98.80;;;;;;5032825;28;20676;-78
2021/06/01 07:06:39;;;;;;;6.07;5.47;;;21.40;98.20;;;;;;5033937;28;20199;-77
2021/06/01 07:09:07;;;;;;;5.77;5.27;;;21.60;99.10;;;;;;5034010;28;20225;-78
2021/06/01 07:11:35;;;;;;;5.23;4.83;;;21.50;97.60;;;;;;5030629;28;20261;-78
2021/06/01 07:14:10;;;;;;;5.70;5.20;;;21.80;97.30;;;;;;5035271;28;20695;-78
2021/06/01 07:16:37;;;;;;;5.50;4.87;;;22.20;97.10;;;;;;5036132;28;20210;-77
2021/06/01 07:19:04;;;;;;;5.30;4.80;;;22.40;97.70;;;;;;5036958;28;20579;-77
2021/06/01 07:21:30;;;;;;;5.10;4.70;;;22.20;97.80;;;;;;5037116;28;20220;-78
2021/06/01 07:23:57;;;;;;;5.43;4.97;;;22.40;97.80;;;;;;5035283;28;20203;-77
2021/06/01 07:26:23;;;;;;;6.73;5.57;;;22.80;96.80;;;;;;5034624;28;20286;-78
2021/06/01 07:28:51;;;;;;;5.23;4.77;;;22.70;96.40;;;;;;5036537;28;20273;-78
2021/06/01 07:31:18;;;;;;;4.00;2.73;;;23.00;97.30;;;;;;5034609;28;20232;-79
2021/06/01 07:33:46;;;;;;;4.53;2.80;;;23.40;95.60;;;;;;5034586;28;20669;-79
2021/06/01 07:36:12;;;;;;;2.47;2.27;;;23.20;95.70;;;;;;5035309;28;20204;-79
2021/06/01 07:38:39;;;;;;;4.10;2.90;;;23.70;95.20;;;;;;5035035;28;20200;-78
2021/06/01 07:41:06;;;;;;;2.83;2.50;;;23.90;94.30;;;;;;5033674;28;20226;-79
2021/06/01 07:43:33;;;;;;;3.70;2.70;;;24.10;93.60;;;;;;5019514;28;20192;-77
2021/06/01 07:46:03;;;;;;;3.43;2.97;;;24.00;93.00;;;;;;5034742;28;20647;-77
2021/06/01 07:48:32;;;;;;;2.73;2.53;;;23.70;92.80;;;;;;5035502;28;20214;-79
2021/06/01 07:50:58;;;;;;;3.73;2.73;;;24.00;92.90;;;;;;5028403;28;20226;-78
2021/06/01 07:53:25;;;;;;;3.07;2.30;;;24.00;87.60;;;;;;5035723;28;20195;-78
2021/06/01 07:55:52;;;;;;;3.43;2.70;;;23.90;89.50;;;;;;5034303;28;20202;-81
2021/06/01 07:58:19;;;;;;;2.90;2.70;;;24.00;83.70;;;;;;5032339;28;20207;-78
2021/06/01 08:00:45;;;;;;;4.90;4.50;;;24.00;79.30;;;;;;5026456;28;20227;-79
2021/06/01 08:03:16;;;;;;;4.83;4.43;;;24.20;76.80;;;;;;5033729;28;20211;-78
2021/06/01 08:05:43;;;;;;;4.00;3.40;;;23.90;79.10;;;;;;5033484;28;20208;-77
2021/06/01 08:08:09;;;;;;;5.43;5.03;;;24.10;77.70;;;;;;5035147;28;20215;-77
2021/06/01 08:10:36;;;;;;;5.63;5.00;;;24.20;78.80;;;;;;5034925;28;20216;-78
2021/06/01 08:13:02;;;;;;;4.30;3.90;;;24.30;77.50;;;;;;5034750;28;20210;-78
2021/06/01 08:15:28;;;;;;;6.27;4.73;;;24.70;75.30;;;;;;5035562;28;20550;-79
2021/06/01 08:17:58;;;;;;;5.50;4.60;;;24.90;76.70;;;;;;5025736;28;20578;-79
2021/06/01 08:20:34;;;;;;;2.80;2.23;;;25.20;77.80;;;;;;5033774;28;20246;-79
2021/06/01 08:23:00;;;;;;;6.47;4.60;;;25.50;75.60;;;;;;5033207;28;20271;-79
2021/06/01 08:25:26;;;;;;;6.83;3.07;;;25.50;73.60;;;;;;5034615;28;20193;-80
2021/06/01 08:27:53;;;;;;;2.90;2.67;;;25.40;71.10;;;;;;5031623;28;20257;-76
2021/06/01 08:30:21;;;;;;;4.73;4.33;;;25.00;72.00;;;;;;5033092;28;20311;-80
2021/06/01 08:32:47;;;;;;;3.00;2.70;;;24.40;71.40;;;;;;5031852;28;20195;-76
2021/06/01 08:35:13;;;;;;;6.80;6.20;;;24.60;70.10;;;;;;5032070;28;20199;-78
2021/06/01 08:37:41;;;;;;;5.37;4.97;;;25.00;73.30;;;;;;5031017;28;20213;-79
2021/06/01 08:40:09;;;;;;;6.50;5.90;;;25.20;71.60;;;;;;5030561;28;20224;-78
2021/06/01 08:42:36;;;;;;;6.07;5.67;;;24.90;68.60;;;;;;5022383;28;20618;-77
2021/06/01 08:45:05;;;;;;;5.40;5.00;;;25.10;71.20;;;;;;5029085;28;20221;-77
2021/06/01 08:47:32;;;;;;;3.40;3.10;;;25.40;69.90;;;;;;5030600;28;20684;-77
2021/06/01 08:49:59;;;;;;;2.73;2.50;;;25.30;66.00;;;;;;5029045;28;20212;-78
2021/06/01 08:52:25;;;;;;;6.70;6.10;;;25.30;67.80;;;;;;5031010;28;20191;-77
2021/06/01 08:54:54;;;;;;;4.70;4.30;;;25.40;68.50;;;;;;5030821;28;20221;-77
2021/06/01 08:57:21;;;;;;;6.47;5.97;;;25.70;67.30;;;;;;5032137;28;20196;-77
2021/06/01 08:59:47;;;;;;;2.20;2.10;;;25.90;66.90;;;;;;5025790;28;20237;-77
2021/06/01 09:02:20;;;;;;;4.97;4.57;;;26.10;65.00;;;;;;5022641;28;20196;-77
2021/06/01 09:04:54;;;;;;;3.13;2.30;;;26.20;63.50;;;;;;5028565;28;20200;-77
2021/06/01 09:07:30;;;;;;;2.63;2.43;;;26.50;66.30;;;;;;5030953;28;20205;-79
2021/06/01 09:21:39;;;;;;;6.93;6.37;;;27.10;66.40;;;;;;5030535;28;20216;-77
2021/06/01 09:24:06;;;;;;;5.07;4.73;;;26.80;60.80;;;;;;5030701;28;20212;-77
2021/06/01 09:27:01;;;;;;;6.33;5.83;;;26.00;61.40;;;;;;5030365;28;20199;-77
2021/06/01 09:29:29;;;;;;;3.37;3.07;;;26.10;63.90;;;;;;5030462;28;20684;-81
2021/06/01 09:32:10;;;;;;;6.27;5.87;;;26.40;62.90;;;;;;5032430;28;20239;-77
2021/06/01 09:34:43;;;;;;;2.57;2.30;;;26.40;61.00;;;;;;5032043;28;20248;-78
2021/06/01 09:37:21;;;;;;;2.50;2.30;;;26.70;63.90;;;;;;5028706;28;20265;-78
2021/06/01 09:40:05;;;;;;;3.80;2.70;;;26.50;64.20;;;;;;5030966;28;20218;-78
2021/06/01 09:42:34;;;;;;;2.70;2.50;;;26.50;61.70;;;;;;5027947;28;20203;-77
2021/06/01 09:45:07;;;;;;;5.30;4.90;;;26.50;61.90;;;;;;5030006;28;20208;-77
2021/06/01 09:48:03;;;;;;;7.07;6.60;;;26.30;60.90;;;;;;5030193;28;20198;-78
2021/06/01 09:50:35;;;;;;;5.80;5.30;;;25.70;60.20;;;;;;5030131;28;20227;-78
2021/06/01 09:53:04;;;;;;;4.20;3.10;;;25.40;59.80;;;;;;5031151;28;20207;-78
2021/06/01 09:55:35;;;;;;;7.93;7.30;;;25.20;60.00;;;;;;5029862;28;20655;-78
2021/06/01 09:58:04;;;;;;;6.00;5.60;;;25.20;61.90;;;;;;5026976;28;20227;-78
2021/06/01 10:00:33;;;;;;;6.33;5.87;;;25.40;61.10;;;;;;5030936;28;20227;-77
2021/06/01 10:03:02;;;;;;;6.10;5.70;;;25.60;60.20;;;;;;5031765;28;20227;-78
2021/06/01 10:05:30;;;;;;;6.13;5.70;;;25.50;61.00;;;;;;5031781;28;20197;-77
2021/06/01 10:07:58;;;;;;;2.87;2.63;;;25.70;63.30;;;;;;5032697;28;20664;-80
2021/06/01 10:10:27;;;;;;;3.10;2.30;;;25.60;61.60;;;;;;5031261;28;20224;-78
2021/06/01 10:12:55;;;;;;;5.60;5.17;;;25.60;61.40;;;;;;5031493;28;20290;-79
2021/06/01 10:15:25;;;;;;;4.97;4.60;;;25.80;62.90;;;;;;5033280;28;20225;-80
2021/06/01 10:17:51;;;;;;;5.50;5.00;;;26.00;63.50;;;;;;5031604;28;20695;-78
2021/06/01 10:20:20;;;;;;;6.20;5.70;;;25.90;61.50;;;;;;5032661;28;20224;-78
2021/06/01 10:22:47;;;;;;;6.10;5.70;;;25.50;62.40;;;;;;5031441;28;20199;-79
2021/06/01 10:25:15;;;;;;;5.70;5.40;;;25.10;64.00;;;;;;5032788;28;20207;-78
2021/06/01 10:27:42;;;;;;;6.30;5.90;;;25.20;63.80;;;;;;5024827;28;20214;-78
2021/06/01 10:30:10;;;;;;;6.13;5.73;;;25.10;62.00;;;;;;5029527;28;20281;-77
2021/06/01 10:32:41;;;;;;;5.93;5.33;;;24.90;64.10;;;;;;5031252;28;20204;-76
2021/06/01 10:35:12;;;;;;;6.10;5.70;;;25.10;62.50;;;;;;5029262;28;20194;-79
2021/06/01 10:43:45;;;;;;;5.60;5.20;;;24.90;68.10;;;;;;5016863;28;20203;-77
2021/06/01 10:52:09;;;;;;;7.17;6.10;;;24.10;68.90;;;;;;5025124;28;20242;-79
2021/06/01 10:54:59;;;;;;;7.03;5.70;;;23.90;69.80;;;;;;5029573;28;20204;-78
2021/06/01 10:57:52;;;;;;;6.20;5.70;;;23.70;67.60;;;;;;5031395;28;20572;-77
2021/06/01 11:03:05;;;;;;;6.10;5.60;;;23.80;67.50;;;;;;5032835;28;20622;-77
2021/06/01 11:06:04;;;;;;;6.90;6.23;;;23.80;69.80;;;;;;5034817;28;20207;-77
2021/06/01 11:08:40;;;;;;;6.17;5.77;;;23.70;66.90;;;;;;5028874;28;20204;-77
2021/06/01 11:11:31;;;;;;;6.37;5.87;;;23.20;66.60;;;;;;5020018;28;20216;-78
2021/06/01 11:13:59;;;;;;;6.30;5.70;;;23.20;68.40;;;;;;5024889;28;20278;-78
2021/06/01 11:16:26;;;;;;;5.83;5.40;;;23.10;70.70;;;;;;5030356;28;20199;-77
2021/06/01 11:18:58;;;;;;;6.60;6.00;;;23.20;72.10;;;;;;5020685;28;20197;-78
2021/06/01 11:21:32;;;;;;;5.77;5.37;;;23.30;67.70;;;;;;5041124;28;20224;-79
2021/06/01 11:32:59;;;;;;;6.10;5.70;;;23.30;69.70;;;;;;5030023;28;20682;-77
2021/06/01 11:35:28;;;;;;;5.97;5.50;;;23.30;68.90;;;;;;5033304;28;20214;-77
2021/06/01 11:38:02;;;;;;;6.33;5.90;;;23.00;70.00;;;;;;5034262;28;20200;-77
2021/06/01 11:40:33;;;;;;;6.23;5.83;;;23.00;68.70;;;;;;5033349;28;20262;-77
2021/06/01 11:43:10;;;;;;;5.90;5.47;;;22.90;70.20;;;;;;5034139;28;20203;-77
2021/06/01 11:45:41;;;;;;;6.00;5.50;;;23.20;73.10;;;;;;5035458;28;20577;-77
2021/06/01 11:48:13;;;;;;;7.53;5.80;;;23.20;69.10;;;;;;5035944;28;20226;-77
2021/06/01 11:50:58;;;;;;;5.57;5.17;;;22.90;67.70;;;;;;5028143;28;20277;-76
2021/06/01 11:53:26;;;;;;;5.87;5.37;;;23.00;68.90;;;;;;5034054;28;20282;-78
2021/06/01 11:56:01;;;;;;;5.67;5.33;;;23.00;70.10;;;;;;5035788;28;20195;-78
2021/06/01 12:04:01;;;;;;;6.00;5.50;;;22.90;68.90;;;;;;5035143;28;20199;-79
2021/06/01 12:12:05;;;;;;;6.07;5.40;;;22.80;72.00;;;;;;5009177;28;20771;-77
2021/06/01 12:17:48;;;;;;;6.23;5.63;;;22.80;68.00;;;;;;5027451;28;20274;-76
2021/06/01 12:20:15;;;;;;;5.80;5.40;;;22.80;67.90;;;;;;5033328;28;20250;-78
2021/06/01 12:22:42;;;;;;;5.50;5.10;;;22.70;70.00;;;;;;5033338;28;20211;-77
2021/06/01 12:25:12;;;;;;;5.63;5.23;;;22.80;70.50;;;;;;5034877;28;20194;-77
2021/06/01 12:27:54;;;;;;;5.60;5.20;;;22.90;69.40;;;;;;5033837;28;20682;-77
2021/06/01 12:33:07;;;;;;;5.20;4.90;;;22.80;70.50;;;;;;5034701;28;20180;-78
2021/06/01 12:35:47;;;;;;;5.60;5.20;;;22.90;68.60;;;;;;5024750;28;20207;-78
2021/06/01 12:43:46;;;;;;;5.90;5.30;;;22.70;66.00;;;;;;5026162;28;20207;-78
2021/06/01 12:46:24;;;;;;;5.53;5.13;;;22.70;67.40;;;;;;5033782;28;20195;-77
2021/06/01 13:14:30;;;;;;;5.90;5.50;;;23.00;68.30;;;;;;5034865;28;20206;-78
2021/06/01 13:19:45;;;;;;;5.90;5.50;;;23.10;70.50;;;;;;5034812;28;20282;-77
2021/06/01 13:22:31;;;;;;;5.70;5.30;;;23.00;68.80;;;;;;5034268;28;20249;-78
2021/06/01 13:30:36;;;;;;;4.27;3.93;;;23.00;70.30;;;;;;5023650;28;20230;-80
2021/06/01 13:38:51;;;;;;;6.53;6.03;;;23.10;69.50;;;;;;4954640;28;20209;-82
2021/06/01 13:46:51;;;;;;;3.30;3.00;;;23.20;70.40;;;;;;5019836;28;20313;-77
2021/06/01 13:49:19;;;;;;;5.43;5.03;;;23.20;70.00;;;;;;5021262;28;20231;-78
2021/06/01 13:52:09;;;;;;;6.43;5.93;;;23.20;71.30;;;;;;5021880;28;20293;-78
2021/06/01 13:57:28;;;;;;;6.07;5.57;;;23.30;71.90;;;;;;5019396;28;20200;-78
2021/06/01 14:00:05;;;;;;;6.00;5.50;;;23.30;69.10;;;;;;5017240;28;20224;-77
2021/06/01 14:09:30;;;;;;;5.70;5.30;;;23.00;68.80;;;;;;5025071;28;20196;-78
2021/06/01 14:15:13;;;;;;;5.53;5.20;;;23.00;69.40;;;;;;5011503;28;20227;-78
2021/06/01 14:20:12;;;;;;;5.73;5.30;;;23.10;70.00;;;;;;5030051;28;20200;-77
2021/06/01 14:31:17;;;;;;;6.00;5.60;;;23.10;70.30;;;;;;5018438;28;20235;-77
2021/06/01 14:36:48;;;;;;;5.60;5.20;;;23.20;70.20;;;;;;5019945;28;20693;-79
2021/06/01 14:39:24;;;;;;;6.10;5.53;;;23.10;71.10;;;;;;5019627;28;20189;-77
2021/06/01 15:04:22;;;;;;;6.47;5.87;;;23.10;71.80;;;;;;5028950;28;20199;-78
2021/06/01 15:10:03;;;;;;;6.00;5.60;;;23.30;72.80;;;;;;5035373;28;20795;-78
2021/06/01 15:29:11;;;;;;;5.40;5.00;;;23.20;70.90;;;;;;5028498;28;20228;-77
2021/06/01 16:15:03;;;;;;;7.80;5.70;;;22.80;70.50;;;;;;4963350;28;20221;-77
2021/06/01 17:04:38;;;;;;;5.37;4.87;;;22.50;71.30;;;;;;4937141;29;20227;-76
2021/06/01 17:07:17;;;;;;;5.47;4.97;;;22.50;72.10;;;;;;4933757;29;20297;-76
2021/06/01 17:13:01;;;;;;;5.50;5.10;;;22.40;71.20;;;;;;4947893;29;20231;-76
2021/06/01 17:55:37;;;;;;;5.10;4.70;;;21.60;72.30;;;;;;5527768;23;20232;-82
2021/06/01 19:52:00;;;;;;;4.83;4.53;;;17.50;90.80;;;;;;4949524;29;20254;-78
2021/06/01 19:54:28;;;;;;;5.20;4.80;;;17.40;91.40;;;;;;4931476;29;20669;-78
2021/06/01 19:56:54;;;;;;;5.57;5.17;;;17.30;91.90;;;;;;4961704;28;20199;-78
2021/06/01 19:59:21;;;;;;;5.80;5.30;;;17.20;91.90;;;;;;4960889;28;20682;-78
2021/06/01 20:01:49;;;;;;;5.37;4.97;;;17.10;92.50;;;;;;4965983;28;20230;-78
2021/06/01 20:04:15;;;;;;;5.80;5.40;;;17.00;92.60;;;;;;4955338;28;20224;-78